sensor_id;sensor_type;location;lat;lon;timestamp;pressure;altitude;pressure_sealevel;temperature
63689;BMP280;54895;40.928;14.480;2023-06-14T00:00:37;100255.66;;;24.49
63689;BMP280;54895;40.928;14.480;2023-06-14T00:03:07;100285.66;;;24.68
63689;BMP280;54895;40.928;14.480;2023-06-14T00:05:38;100274.13;;;24.70
63689;BMP280;54895;40.928;14.480;2023-06-14T00:08:07;100309.78;;;24.95
63689;BMP280;54895;40.928;14.480;2023-06-14T00:10:35;100309.72;;;24.93
63689;BMP280;54895;40.928;14.480;2023-06-14T00:13:02;100324.84;;;24.79
63689;BMP280;54895;40.928;14.480;2023-06-14T00:15:31;100297.56;;;24.59
63689;BMP280;54895;40.928;14.480;2023-06-14T00:17:57;100292.00;;;24.38
63689;BMP280;54895;40.928;14.480;2023-06-14T00:20:27;100324.47;;;24.69
63689;BMP280;54895;40.928;14.480;2023-06-14T00:22:54;100340.13;;;24.53
63689;BMP280;54895;40.928;14.480;2023-06-14T00:25:24;100383.66;;;25.05
63689;BMP280;54895;40.928;14.480;2023-06-14T00:27:54;100374.03;;;25.02
63689;BMP280;54895;40.928;14.480;2023-06-14T00:30:21;100378.09;;;24.66
63689;BMP280;54895;40.928;14.480;2023-06-14T00:32:47;100388.78;;;24.80
63689;BMP280;54895;40.928;14.480;2023-06-14T00:35:14;100373.31;;;24.67
63689;BMP280;54895;40.928;14.480;2023-06-14T00:37:41;100390.00;;;24.75
63689;BMP280;54895;40.928;14.480;2023-06-14T00:40:08;100367.34;;;24.53
63689;BMP280;54895;40.928;14.480;2023-06-14T00:42:34;100402.03;;;25.41
63689;BMP280;54895;40.928;14.480;2023-06-14T00:45:01;100371.81;;;24.62
63689;BMP280;54895;40.928;14.480;2023-06-14T00:47:27;100373.09;;;24.78
63689;BMP280;54895;40.928;14.480;2023-06-14T00:49:57;100410.00;;;25.01
63689;BMP280;54895;40.928;14.480;2023-06-14T00:52:24;100433.91;;;25.02
63689;BMP280;54895;40.928;14.480;2023-06-14T00:54:51;100408.88;;;24.71
63689;BMP280;54895;40.928;14.480;2023-06-14T00:57:17;100365.63;;;24.44
63689;BMP280;54895;40.928;14.480;2023-06-14T00:59:46;100343.78;;;24.24
63689;BMP280;54895;40.928;14.480;2023-06-14T01:02:13;100369.28;;;25.03
63689;BMP280;54895;40.928;14.480;2023-06-14T01:04:43;100341.63;;;24.21
63689;BMP280;54895;40.928;14.480;2023-06-14T01:07:21;100323.47;;;23.92
63689;BMP280;54895;40.928;14.480;2023-06-14T01:10:09;100310.28;;;23.87
63689;BMP280;54895;40.928;14.480;2023-06-14T01:12:47;100309.56;;;24.02
63689;BMP280;54895;40.928;14.480;2023-06-14T01:15:17;100390.56;;;25.25
63689;BMP280;54895;40.928;14.480;2023-06-14T01:17:45;100441.09;;;25.30
63689;BMP280;54895;40.928;14.480;2023-06-14T01:20:12;100386.94;;;24.67
63689;BMP280;54895;40.928;14.480;2023-06-14T01:23:07;100379.09;;;24.75
63689;BMP280;54895;40.928;14.480;2023-06-14T01:25:33;100360.09;;;24.77
63689;BMP280;54895;40.928;14.480;2023-06-14T01:28:05;100347.44;;;24.83
63689;BMP280;54895;40.928;14.480;2023-06-14T01:30:37;100327.94;;;24.89
63689;BMP280;54895;40.928;14.480;2023-06-14T01:33:04;100338.81;;;24.54
63689;BMP280;54895;40.928;14.480;2023-06-14T01:35:31;100313.34;;;24.45
63689;BMP280;54895;40.928;14.480;2023-06-14T01:37:58;100320.81;;;24.45
63689;BMP280;54895;40.928;14.480;2023-06-14T01:40:25;100317.84;;;24.39
63689;BMP280;54895;40.928;14.480;2023-06-14T01:42:52;100248.91;;;23.97
63689;BMP280;54895;40.928;14.480;2023-06-14T01:45:19;100269.53;;;24.55
63689;BMP280;54895;40.928;14.480;2023-06-14T01:47:46;100249.31;;;24.25
63689;BMP280;54895;40.928;14.480;2023-06-14T01:50:15;100241.22;;;24.27
63689;BMP280;54895;40.928;14.480;2023-06-14T01:52:42;100210.63;;;24.09
63689;BMP280;54895;40.928;14.480;2023-06-14T01:55:10;100215.84;;;24.20
63689;BMP280;54895;40.928;14.480;2023-06-14T01:57:38;100276.06;;;24.48
63689;BMP280;54895;40.928;14.480;2023-06-14T02:00:05;100291.72;;;24.32
63689;BMP280;54895;40.928;14.480;2023-06-14T02:02:39;100235.03;;;24.07
63689;BMP280;54895;40.928;14.480;2023-06-14T02:05:06;100173.06;;;23.86
63689;BMP280;54895;40.928;14.480;2023-06-14T02:07:32;100218.75;;;24.61
63689;BMP280;54895;40.928;14.480;2023-06-14T02:09:59;100325.81;;;25.05
63689;BMP280;54895;40.928;14.480;2023-06-14T02:12:25;100215.13;;;23.52
63689;BMP280;54895;40.928;14.480;2023-06-14T02:14:52;100108.31;;;22.97
63689;BMP280;54895;40.928;14.480;2023-06-14T02:17:18;100170.72;;;23.61
63689;BMP280;54895;40.928;14.480;2023-06-14T02:19:44;100133.13;;;23.73
63689;BMP280;54895;40.928;14.480;2023-06-14T02:22:11;100102.84;;;23.28
63689;BMP280;54895;40.928;14.480;2023-06-14T02:24:37;100072.91;;;23.26
63689;BMP280;54895;40.928;14.480;2023-06-14T02:27:07;100076.75;;;23.39
63689;BMP280;54895;40.928;14.480;2023-06-14T02:29:36;100171.78;;;24.24
63689;BMP280;54895;40.928;14.480;2023-06-14T02:32:04;100218.94;;;23.95
63689;BMP280;54895;40.928;14.480;2023-06-14T02:34:31;100247.09;;;24.04
63689;BMP280;54895;40.928;14.480;2023-06-14T02:36:57;100187.63;;;23.77
63689;BMP280;54895;40.928;14.480;2023-06-14T02:39:23;100258.47;;;24.16
63689;BMP280;54895;40.928;14.480;2023-06-14T02:41:50;100238.13;;;24.17
63689;BMP280;54895;40.928;14.480;2023-06-14T02:44:19;100221.28;;;24.20
63689;BMP280;54895;40.928;14.480;2023-06-14T02:46:45;100201.38;;;24.16
63689;BMP280;54895;40.928;14.480;2023-06-14T02:49:12;100195.56;;;24.06
63689;BMP280;54895;40.928;14.480;2023-06-14T02:51:38;100158.50;;;23.97
63689;BMP280;54895;40.928;14.480;2023-06-14T02:54:04;100153.31;;;24.03
63689;BMP280;54895;40.928;14.480;2023-06-14T02:56:31;100158.22;;;24.06
63689;BMP280;54895;40.928;14.480;2023-06-14T02:58:57;100157.59;;;23.90
63689;BMP280;54895;40.928;14.480;2023-06-14T03:01:27;100149.94;;;24.02
63689;BMP280;54895;40.928;14.480;2023-06-14T03:04:01;100143.81;;;24.04
63689;BMP280;54895;40.928;14.480;2023-06-14T03:06:30;100124.75;;;24.02
63689;BMP280;54895;40.928;14.480;2023-06-14T03:08:59;100151.34;;;24.40
63689;BMP280;54895;40.928;14.480;2023-06-14T03:11:27;100161.09;;;24.28
63689;BMP280;54895;40.928;14.480;2023-06-14T03:13:53;100171.69;;;24.39
63689;BMP280;54895;40.928;14.480;2023-06-14T03:16:25;100185.97;;;24.57
63689;BMP280;54895;40.928;14.480;2023-06-14T03:18:55;100191.81;;;24.69
63689;BMP280;54895;40.928;14.480;2023-06-14T03:21:25;100179.25;;;24.41
63689;BMP280;54895;40.928;14.480;2023-06-14T03:23:56;100161.13;;;24.30
63689;BMP280;54895;40.928;14.480;2023-06-14T03:26:22;100180.31;;;24.34
63689;BMP280;54895;40.928;14.480;2023-06-14T03:28:51;100199.03;;;24.61
63689;BMP280;54895;40.928;14.480;2023-06-14T03:31:19;100146.88;;;23.94
63689;BMP280;54895;40.928;14.480;2023-06-14T03:33:46;100132.03;;;23.97
63689;BMP280;54895;40.928;14.480;2023-06-14T03:36:13;100149.44;;;24.08
63689;BMP280;54895;40.928;14.480;2023-06-14T03:38:40;100158.75;;;24.03
63689;BMP280;54895;40.928;14.480;2023-06-14T03:41:06;100197.31;;;24.52
63689;BMP280;54895;40.928;14.480;2023-06-14T03:43:32;100228.94;;;24.43
63689;BMP280;54895;40.928;14.480;2023-06-14T03:46:00;100221.09;;;24.51
63689;BMP280;54895;40.928;14.480;2023-06-14T03:48:29;100244.00;;;24.64
63689;BMP280;54895;40.928;14.480;2023-06-14T03:50:56;100293.47;;;24.95
63689;BMP280;54895;40.928;14.480;2023-06-14T03:53:22;100311.47;;;25.04
63689;BMP280;54895;40.928;14.480;2023-06-14T03:55:54;100326.84;;;25.15
63689;BMP280;54895;40.928;14.480;2023-06-14T03:58:23;100321.41;;;25.15
63689;BMP280;54895;40.928;14.480;2023-06-14T04:00:50;100323.38;;;25.12
63689;BMP280;54895;40.928;14.480;2023-06-14T04:03:16;100331.25;;;25.24
63689;BMP280;54895;40.928;14.480;2023-06-14T04:05:42;100346.38;;;25.09
63689;BMP280;54895;40.928;14.480;2023-06-14T04:08:10;100330.56;;;24.87
63689;BMP280;54895;40.928;14.480;2023-06-14T04:10:37;100295.13;;;24.67
63689;BMP280;54895;40.928;14.480;2023-06-14T04:13:03;100338.22;;;25.09
63689;BMP280;54895;40.928;14.480;2023-06-14T04:15:31;100323.09;;;25.05
63689;BMP280;54895;40.928;14.480;2023-06-14T04:18:00;100332.28;;;25.15
63689;BMP280;54895;40.928;14.480;2023-06-14T04:20:26;100344.88;;;25.24
63689;BMP280;54895;40.928;14.480;2023-06-14T04:22:52;100359.75;;;25.21
63689;BMP280;54895;40.928;14.480;2023-06-14T04:25:20;100350.41;;;25.26
63689;BMP280;54895;40.928;14.480;2023-06-14T04:27:47;100369.75;;;25.53
63689;BMP280;54895;40.928;14.480;2023-06-14T04:30:14;100413.91;;;25.89
63689;BMP280;54895;40.928;14.480;2023-06-14T04:32:46;100422.03;;;25.87
63689;BMP280;54895;40.928;14.480;2023-06-14T04:35:13;100441.31;;;25.93
63689;BMP280;54895;40.928;14.480;2023-06-14T04:37:42;100445.53;;;25.96
63689;BMP280;54895;40.928;14.480;2023-06-14T04:40:10;100434.75;;;25.80
63689;BMP280;54895;40.928;14.480;2023-06-14T04:42:40;100409.16;;;25.89
63689;BMP280;54895;40.928;14.480;2023-06-14T04:45:11;100420.63;;;25.66
63689;BMP280;54895;40.928;14.480;2023-06-14T04:47:40;100387.66;;;25.78
63689;BMP280;54895;40.928;14.480;2023-06-14T04:50:07;100416.56;;;26.06
63689;BMP280;54895;40.928;14.480;2023-06-14T04:52:34;100416.97;;;26.18
63689;BMP280;54895;40.928;14.480;2023-06-14T04:55:01;100436.72;;;26.38
63689;BMP280;54895;40.928;14.480;2023-06-14T04:57:28;100443.44;;;26.35
63689;BMP280;54895;40.928;14.480;2023-06-14T04:59:57;100462.09;;;26.64
63689;BMP280;54895;40.928;14.480;2023-06-14T05:02:28;100509.28;;;26.88
63689;BMP280;54895;40.928;14.480;2023-06-14T05:04:57;100494.28;;;26.07
63689;BMP280;54895;40.928;14.480;2023-06-14T05:07:23;100508.31;;;26.58
63689;BMP280;54895;40.928;14.480;2023-06-14T05:09:51;100514.41;;;26.37
63689;BMP280;54895;40.928;14.480;2023-06-14T05:12:17;100490.47;;;26.55
63689;BMP280;54895;40.928;14.480;2023-06-14T05:15:24;100476.53;;;26.26
63689;BMP280;54895;40.928;14.480;2023-06-14T05:17:51;100464.34;;;26.28
63689;BMP280;54895;40.928;14.480;2023-06-14T05:20:24;100473.78;;;26.66
63689;BMP280;54895;40.928;14.480;2023-06-14T05:22:53;100457.31;;;26.43
63689;BMP280;54895;40.928;14.480;2023-06-14T05:25:20;100436.72;;;26.38
63689;BMP280;54895;40.928;14.480;2023-06-14T05:27:47;100459.25;;;26.60
63689;BMP280;54895;40.928;14.480;2023-06-14T05:30:14;100470.22;;;26.83
63689;BMP280;54895;40.928;14.480;2023-06-14T05:32:41;100473.72;;;26.86
63689;BMP280;54895;40.928;14.480;2023-06-14T05:35:08;100475.25;;;26.91
63689;BMP280;54895;40.928;14.480;2023-06-14T05:37:34;100543.59;;;27.38
63689;BMP280;54895;40.928;14.480;2023-06-14T05:40:00;100532.31;;;27.49
63689;BMP280;54895;40.928;14.480;2023-06-14T05:42:27;100523.97;;;27.22
63689;BMP280;54895;40.928;14.480;2023-06-14T05:44:53;100519.91;;;26.80
63689;BMP280;54895;40.928;14.480;2023-06-14T05:47:19;100517.31;;;27.05
63689;BMP280;54895;40.928;14.480;2023-06-14T05:49:46;100501.97;;;26.94
63689;BMP280;54895;40.928;14.480;2023-06-14T05:52:12;100548.69;;;27.26
63689;BMP280;54895;40.928;14.480;2023-06-14T05:54:39;100509.19;;;27.31
63689;BMP280;54895;40.928;14.480;2023-06-14T05:57:05;100515.13;;;27.46
63689;BMP280;54895;40.928;14.480;2023-06-14T05:59:32;100507.19;;;27.54
63689;BMP280;54895;40.928;14.480;2023-06-14T06:01:58;100489.19;;;27.47
63689;BMP280;54895;40.928;14.480;2023-06-14T06:04:25;100502.03;;;27.66
63689;BMP280;54895;40.928;14.480;2023-06-14T06:06:51;100513.13;;;28.23
63689;BMP280;54895;40.928;14.480;2023-06-14T06:09:17;100543.00;;;28.68
63689;BMP280;54895;40.928;14.480;2023-06-14T06:11:45;100592.38;;;29.31
63689;BMP280;54895;40.928;14.480;2023-06-14T06:17:06;100619.16;;;29.65
63689;BMP280;54895;40.928;14.480;2023-06-14T06:19:32;100651.28;;;29.61
63689;BMP280;54895;40.928;14.480;2023-06-14T06:21:58;100657.28;;;29.53
63689;BMP280;54895;40.928;14.480;2023-06-14T06:24:25;100663.44;;;28.95
63689;BMP280;54895;40.928;14.480;2023-06-14T06:26:52;100645.44;;;28.59
63689;BMP280;54895;40.928;14.480;2023-06-14T06:29:19;100664.63;;;28.34
63689;BMP280;54895;40.928;14.480;2023-06-14T06:31:45;100658.44;;;28.33
63689;BMP280;54895;40.928;14.480;2023-06-14T06:34:12;100659.78;;;28.85
63689;BMP280;54895;40.928;14.480;2023-06-14T06:36:38;100656.25;;;29.37
63689;BMP280;54895;40.928;14.480;2023-06-14T06:39:04;100679.34;;;29.58
63689;BMP280;54895;40.928;14.480;2023-06-14T06:41:37;100681.84;;;29.48
63689;BMP280;54895;40.928;14.480;2023-06-14T06:44:06;100678.47;;;29.49
63689;BMP280;54895;40.928;14.480;2023-06-14T06:46:33;100683.59;;;29.64
63689;BMP280;54895;40.928;14.480;2023-06-14T06:49:00;100675.00;;;29.49
63689;BMP280;54895;40.928;14.480;2023-06-14T06:51:27;100676.47;;;29.52
63689;BMP280;54895;40.928;14.480;2023-06-14T06:53:55;100680.34;;;30.05
63689;BMP280;54895;40.928;14.480;2023-06-14T06:56:21;100690.53;;;30.36
63689;BMP280;54895;40.928;14.480;2023-06-14T06:58:51;100698.78;;;30.73
63689;BMP280;54895;40.928;14.480;2023-06-14T07:01:17;100701.34;;;31.07
63689;BMP280;54895;40.928;14.480;2023-06-14T07:03:45;100701.91;;;30.97
63689;BMP280;54895;40.928;14.480;2023-06-14T07:06:12;100697.66;;;31.36
63689;BMP280;54895;40.928;14.480;2023-06-14T07:08:39;100689.81;;;31.61
63689;BMP280;54895;40.928;14.480;2023-06-14T07:11:06;100691.06;;;31.54
63689;BMP280;54895;40.928;14.480;2023-06-14T07:16:57;100686.06;;;30.96
63689;BMP280;54895;40.928;14.480;2023-06-14T07:19:24;100692.88;;;30.93
63689;BMP280;54895;40.928;14.480;2023-06-14T07:21:51;100697.78;;;30.98
63689;BMP280;54895;40.928;14.480;2023-06-14T07:24:19;100701.84;;;31.39
63689;BMP280;54895;40.928;14.480;2023-06-14T07:26:47;100686.19;;;31.02
63689;BMP280;54895;40.928;14.480;2023-06-14T07:29:15;100690.69;;;30.44
63689;BMP280;54895;40.928;14.480;2023-06-14T07:31:42;100686.38;;;30.00
63689;BMP280;54895;40.928;14.480;2023-06-14T07:34:09;100689.38;;;30.47
63689;BMP280;54895;40.928;14.480;2023-06-14T07:36:35;100693.31;;;30.77
63689;BMP280;54895;40.928;14.480;2023-06-14T07:39:02;100694.63;;;31.14
63689;BMP280;54895;40.928;14.480;2023-06-14T07:41:33;100681.69;;;31.75
63689;BMP280;54895;40.928;14.480;2023-06-14T07:43:59;100698.06;;;32.19
63689;BMP280;54895;40.928;14.480;2023-06-14T07:46:27;100696.38;;;32.57
63689;BMP280;54895;40.928;14.480;2023-06-14T07:48:53;100701.69;;;32.37
63689;BMP280;54895;40.928;14.480;2023-06-14T07:51:20;100693.84;;;31.56
63689;BMP280;54895;40.928;14.480;2023-06-14T07:53:48;100698.22;;;32.37
63689;BMP280;54895;40.928;14.480;2023-06-14T07:56:14;100690.03;;;32.44
63689;BMP280;54895;40.928;14.480;2023-06-14T07:58:41;100710.41;;;32.16
63689;BMP280;54895;40.928;14.480;2023-06-14T08:01:07;100704.47;;;32.43
63689;BMP280;54895;40.928;14.480;2023-06-14T08:03:34;100714.50;;;32.15
63689;BMP280;54895;40.928;14.480;2023-06-14T08:06:00;100710.47;;;32.22
63689;BMP280;54895;40.928;14.480;2023-06-14T08:08:26;100704.22;;;32.17
63689;BMP280;54895;40.928;14.480;2023-06-14T08:10:54;100713.50;;;31.88
63689;BMP280;54895;40.928;14.480;2023-06-14T08:17:16;100717.38;;;31.67
63689;BMP280;54895;40.928;14.480;2023-06-14T08:19:42;100721.97;;;32.04
63689;BMP280;54895;40.928;14.480;2023-06-14T08:22:09;100721.84;;;32.61
63689;BMP280;54895;40.928;14.480;2023-06-14T08:24:37;100728.50;;;33.16
63689;BMP280;54895;40.928;14.480;2023-06-14T08:27:04;100742.53;;;33.53
63689;BMP280;54895;40.928;14.480;2023-06-14T08:29:30;100741.22;;;33.68
63689;BMP280;54895;40.928;14.480;2023-06-14T08:31:56;100743.28;;;32.69
63689;BMP280;54895;40.928;14.480;2023-06-14T08:34:23;100751.78;;;32.93
63689;BMP280;54895;40.928;14.480;2023-06-14T08:36:52;100736.03;;;32.30
63689;BMP280;54895;40.928;14.480;2023-06-14T08:39:21;100745.47;;;32.13
63689;BMP280;54895;40.928;14.480;2023-06-14T08:41:48;100741.88;;;32.66
63689;BMP280;54895;40.928;14.480;2023-06-14T08:44:16;100757.78;;;33.72
63689;BMP280;54895;40.928;14.480;2023-06-14T08:46:43;100762.72;;;33.96
63689;BMP280;54895;40.928;14.480;2023-06-14T08:49:12;100758.91;;;33.25
63689;BMP280;54895;40.928;14.480;2023-06-14T08:51:43;100745.53;;;32.19
63689;BMP280;54895;40.928;14.480;2023-06-14T08:54:11;100747.03;;;31.73
63689;BMP280;54895;40.928;14.480;2023-06-14T08:56:38;100746.47;;;31.80
63689;BMP280;54895;40.928;14.480;2023-06-14T08:59:05;100742.66;;;32.09
63689;BMP280;54895;40.928;14.480;2023-06-14T09:01:36;100747.94;;;31.89
63689;BMP280;54895;40.928;14.480;2023-06-14T09:04:03;100745.41;;;32.07
63689;BMP280;54895;40.928;14.480;2023-06-14T09:06:31;100740.13;;;33.04
63689;BMP280;54895;40.928;14.480;2023-06-14T09:08:58;100745.25;;;33.47
63689;BMP280;54895;40.928;14.480;2023-06-14T09:11:25;100749.31;;;33.34
63689;BMP280;54895;40.928;14.480;2023-06-14T09:17:15;100734.81;;;31.86
63689;BMP280;54895;40.928;14.480;2023-06-14T09:19:42;100735.91;;;32.18
63689;BMP280;54895;40.928;14.480;2023-06-14T09:22:11;100738.03;;;32.99
63689;BMP280;54895;40.928;14.480;2023-06-14T09:24:38;100741.97;;;32.74
63689;BMP280;54895;40.928;14.480;2023-06-14T09:27:05;100735.50;;;33.28
63689;BMP280;54895;40.928;14.480;2023-06-14T09:29:32;100742.53;;;33.55
63689;BMP280;54895;40.928;14.480;2023-06-14T09:31:59;100727.78;;;32.30
63689;BMP280;54895;40.928;14.480;2023-06-14T09:34:26;100731.91;;;31.74
63689;BMP280;54895;40.928;14.480;2023-06-14T09:36:52;100724.84;;;31.61
63689;BMP280;54895;40.928;14.480;2023-06-14T09:39:19;100721.81;;;31.92
63689;BMP280;54895;40.928;14.480;2023-06-14T09:41:46;100740.50;;;32.63
63689;BMP280;54895;40.928;14.480;2023-06-14T09:44:12;100742.09;;;32.90
63689;BMP280;54895;40.928;14.480;2023-06-14T09:46:39;100745.13;;;33.27
63689;BMP280;54895;40.928;14.480;2023-06-14T09:49:07;100747.38;;;33.57
63689;BMP280;54895;40.928;14.480;2023-06-14T09:51:34;100746.81;;;33.80
63689;BMP280;54895;40.928;14.480;2023-06-14T09:54:03;100742.56;;;33.57
63689;BMP280;54895;40.928;14.480;2023-06-14T09:56:35;100744.91;;;33.00
63689;BMP280;54895;40.928;14.480;2023-06-14T09:59:05;100742.00;;;32.80
63689;BMP280;54895;40.928;14.480;2023-06-14T10:01:33;100740.47;;;32.61
63689;BMP280;54895;40.928;14.480;2023-06-14T10:04:05;100744.91;;;33.00
63689;BMP280;54895;40.928;14.480;2023-06-14T10:06:32;100739.28;;;32.84
63689;BMP280;54895;40.928;14.480;2023-06-14T10:09:03;100734.94;;;32.57
63689;BMP280;54895;40.928;14.480;2023-06-14T10:11:30;100729.91;;;31.78
63689;BMP280;54895;40.928;14.480;2023-06-14T10:17:35;100720.00;;;31.57
63689;BMP280;54895;40.928;14.480;2023-06-14T10:23:01;100731.84;;;32.25
63689;BMP280;54895;40.928;14.480;2023-06-14T10:25:30;100736.94;;;31.91
63689;BMP280;54895;40.928;14.480;2023-06-14T10:30:38;100726.50;;;32.43
63689;BMP280;54895;40.928;14.480;2023-06-14T10:33:05;100744.00;;;32.71
63689;BMP280;54895;40.928;14.480;2023-06-14T10:35:34;100744.69;;;32.68
63689;BMP280;54895;40.928;14.480;2023-06-14T10:38:12;100741.03;;;33.32
63689;BMP280;54895;40.928;14.480;2023-06-14T10:40:38;100741.75;;;33.39
63689;BMP280;54895;40.928;14.480;2023-06-14T10:43:21;100740.38;;;32.51
63689;BMP280;54895;40.928;14.480;2023-06-14T10:46:17;100729.06;;;32.23
63689;BMP280;54895;40.928;14.480;2023-06-14T10:48:44;100735.91;;;32.89
63689;BMP280;54895;40.928;14.480;2023-06-14T10:51:20;100720.13;;;32.98
63689;BMP280;54895;40.928;14.480;2023-06-14T10:53:48;100721.16;;;32.59
63689;BMP280;54895;40.928;14.480;2023-06-14T10:56:47;100735.41;;;32.36
63689;BMP280;54895;40.928;14.480;2023-06-14T10:59:15;100722.91;;;32.27
63689;BMP280;54895;40.928;14.480;2023-06-14T11:04:20;100725.56;;;32.17
63689;BMP280;54895;40.928;14.480;2023-06-14T11:06:48;100730.69;;;31.87
63689;BMP280;54895;40.928;14.480;2023-06-14T11:11:42;100714.31;;;31.44
63689;BMP280;54895;40.928;14.480;2023-06-14T11:17:32;100713.13;;;31.58
63689;BMP280;54895;40.928;14.480;2023-06-14T11:20:12;100711.16;;;31.20
63689;BMP280;54895;40.928;14.480;2023-06-14T11:22:42;100706.84;;;31.07
63689;BMP280;54895;40.928;14.480;2023-06-14T11:25:12;100704.22;;;31.13
63689;BMP280;54895;40.928;14.480;2023-06-14T11:27:38;100705.38;;;30.98
63689;BMP280;54895;40.928;14.480;2023-06-14T11:30:07;100702.13;;;30.68
63689;BMP280;54895;40.928;14.480;2023-06-14T11:32:38;100698.50;;;30.99
63689;BMP280;54895;40.928;14.480;2023-06-14T11:35:05;100706.34;;;30.77
63689;BMP280;54895;40.928;14.480;2023-06-14T11:37:32;100688.97;;;30.62
63689;BMP280;54895;40.928;14.480;2023-06-14T11:40:01;100694.72;;;30.76
63689;BMP280;54895;40.928;14.480;2023-06-14T11:42:29;100692.00;;;30.80
63689;BMP280;54895;40.928;14.480;2023-06-14T11:44:56;100699.72;;;30.90
63689;BMP280;54895;40.928;14.480;2023-06-14T11:47:23;100692.75;;;30.85
63689;BMP280;54895;40.928;14.480;2023-06-14T11:49:51;100682.66;;;30.95
63689;BMP280;54895;40.928;14.480;2023-06-14T11:52:18;100686.06;;;30.96
63689;BMP280;54895;40.928;14.480;2023-06-14T11:54:47;100682.22;;;31.13
63689;BMP280;54895;40.928;14.480;2023-06-14T11:57:15;100688.66;;;30.86
63689;BMP280;54895;40.928;14.480;2023-06-14T11:59:44;100687.47;;;30.97
63689;BMP280;54895;40.928;14.480;2023-06-14T12:02:18;100679.59;;;31.23
63689;BMP280;54895;40.928;14.480;2023-06-14T12:04:49;100686.97;;;31.55
63689;BMP280;54895;40.928;14.480;2023-06-14T12:07:16;100696.34;;;31.39
63689;BMP280;54895;40.928;14.480;2023-06-14T12:12:25;100696.13;;;31.74
63689;BMP280;54895;40.928;14.480;2023-06-14T12:17:48;100688.72;;;31.84
63689;BMP280;54895;40.928;14.480;2023-06-14T12:20:17;100689.97;;;30.83
63689;BMP280;54895;40.928;14.480;2023-06-14T12:22:52;100680.13;;;31.58
63689;BMP280;54895;40.928;14.480;2023-06-14T12:25:35;100680.88;;;31.63
63689;BMP280;54895;40.928;14.480;2023-06-14T12:28:08;100668.56;;;31.70
63689;BMP280;54895;40.928;14.480;2023-06-14T12:30:37;100670.69;;;31.75
63689;BMP280;54895;40.928;14.480;2023-06-14T12:33:04;100665.25;;;31.79
63689;BMP280;54895;40.928;14.480;2023-06-14T12:35:30;100672.38;;;31.45
63689;BMP280;54895;40.928;14.480;2023-06-14T12:37:57;100660.66;;;31.43
63689;BMP280;54895;40.928;14.480;2023-06-14T12:40:23;100661.31;;;31.41
63689;BMP280;54895;40.928;14.480;2023-06-14T12:42:50;100668.00;;;30.81
63689;BMP280;54895;40.928;14.480;2023-06-14T12:45:16;100664.84;;;29.86
63689;BMP280;54895;40.928;14.480;2023-06-14T12:47:43;100666.13;;;29.81
63689;BMP280;54895;40.928;14.480;2023-06-14T12:50:10;100668.53;;;29.65
63689;BMP280;54895;40.928;14.480;2023-06-14T12:52:37;100651.28;;;29.94
63689;BMP280;54895;40.928;14.480;2023-06-14T12:55:04;100659.47;;;29.30
63689;BMP280;54895;40.928;14.480;2023-06-14T12:57:31;100654.56;;;29.24
63689;BMP280;54895;40.928;14.480;2023-06-14T12:59:59;100658.44;;;29.74
63689;BMP280;54895;40.928;14.480;2023-06-14T13:02:27;100658.53;;;30.13
63689;BMP280;54895;40.928;14.480;2023-06-14T13:04:55;100664.53;;;29.70
63689;BMP280;54895;40.928;14.480;2023-06-14T13:07:25;100642.34;;;30.29
63689;BMP280;54895;40.928;14.480;2023-06-14T13:09:51;100635.72;;;30.83
63689;BMP280;54895;40.928;14.480;2023-06-14T13:12:18;100639.50;;;30.23
63689;BMP280;54895;40.928;14.480;2023-06-14T13:14:46;100644.09;;;30.89
63689;BMP280;54895;40.928;14.480;2023-06-14T13:17:13;100631.53;;;31.24
63689;BMP280;54895;40.928;14.480;2023-06-14T13:19:39;100631.53;;;31.24
63689;BMP280;54895;40.928;14.480;2023-06-14T13:22:06;100628.63;;;30.27
63689;BMP280;54895;40.928;14.480;2023-06-14T13:24:34;100627.13;;;31.07
63689;BMP280;54895;40.928;14.480;2023-06-14T13:27:00;100636.59;;;32.02
63689;BMP280;54895;40.928;14.480;2023-06-14T13:29:27;100625.13;;;31.60
63689;BMP280;54895;40.928;14.480;2023-06-14T13:31:54;100628.19;;;31.88
63689;BMP280;54895;40.928;14.480;2023-06-14T13:34:22;100614.72;;;32.14
63689;BMP280;54895;40.928;14.480;2023-06-14T13:36:49;100610.75;;;32.35
63689;BMP280;54895;40.928;14.480;2023-06-14T13:39:16;100619.31;;;32.73
63689;BMP280;54895;40.928;14.480;2023-06-14T13:41:42;100614.56;;;32.00
63689;BMP280;54895;40.928;14.480;2023-06-14T13:44:09;100608.47;;;32.10
63689;BMP280;54895;40.928;14.480;2023-06-14T13:46:40;100605.13;;;32.19
63689;BMP280;54895;40.928;14.480;2023-06-14T13:49:09;100610.84;;;31.74
63689;BMP280;54895;40.928;14.480;2023-06-14T13:51:36;100603.78;;;32.26
63689;BMP280;54895;40.928;14.480;2023-06-14T13:54:02;100604.13;;;31.89
63689;BMP280;54895;40.928;14.480;2023-06-14T13:56:29;100594.56;;;31.98
63689;BMP280;54895;40.928;14.480;2023-06-14T13:58:56;100587.97;;;31.57
63689;BMP280;54895;40.928;14.480;2023-06-14T14:01:22;100586.78;;;31.74
63689;BMP280;54895;40.928;14.480;2023-06-14T14:03:49;100580.16;;;30.87
63689;BMP280;54895;40.928;14.480;2023-06-14T14:06:15;100579.13;;;31.12
63689;BMP280;54895;40.928;14.480;2023-06-14T14:08:42;100581.69;;;31.00
63689;BMP280;54895;40.928;14.480;2023-06-14T14:11:08;100570.97;;;31.18
63689;BMP280;54895;40.928;14.480;2023-06-14T14:17:47;100580.91;;;31.43
63689;BMP280;54895;40.928;14.480;2023-06-14T14:20:14;100575.94;;;31.92
63689;BMP280;54895;40.928;14.480;2023-06-14T14:22:42;100582.22;;;31.40
63689;BMP280;54895;40.928;14.480;2023-06-14T14:25:09;100570.72;;;31.00
63689;BMP280;54895;40.928;14.480;2023-06-14T14:27:37;100578.28;;;30.54
63689;BMP280;54895;40.928;14.480;2023-06-14T14:30:04;100576.09;;;30.92